Аэропорт: Мурманск. Мурманск

ICAO: ULMM

METAR:
2018/09/19 07:30
ULMM 190730Z 27003MPS 9999 BKN018 08/04 Q1003 R31/090070 NOSIG RMK QFE745
METAR:
2018/09/19 06:24
TAF ULMM 190451Z 1906/2006 30003G09MPS 9999 BKN011 
      TEMPO 1906/1910 25003MPS 1000 -SHRA BR BKN003 BKN011CB 
      TEMPO 1910/1920 33005G10MPS 3100 -SHRA BR BKN011CB 
     FM192000 11003G08MPS 3100 BR BKN011 
      TEMPO 1920/2006 16003MPS 0300 -SHRA FG BKN002 BKN011CB